createdAt,value
2018-01-06T00:01:47.128Z,195.43
2018-01-06T00:04:13.611Z,186.60
2018-01-06T00:06:40.092Z,196.07
2018-01-06T00:09:06.457Z,187.67
2018-01-06T00:11:32.867Z,192.07
2018-01-06T00:13:59.332Z,192.80
2018-01-06T00:16:25.696Z,171.30
2018-01-06T00:18:52.156Z,173.07
2018-01-06T00:21:18.604Z,172.30
2018-01-06T00:23:45.029Z,158.33
2018-01-06T00:26:11.419Z,151.37
2018-01-06T00:28:37.876Z,153.13
2018-01-06T00:31:04.298Z,138.90
2018-01-06T00:33:30.732Z,134.13
2018-01-06T00:35:57.176Z,130.47
2018-01-06T00:38:23.588Z,123.77
2018-01-06T00:40:49.987Z,120.57
2018-01-06T00:43:16.406Z,110.10
2018-01-06T00:45:42.869Z,108.57
2018-01-06T00:48:09.251Z,104.97
2018-01-06T00:50:35.688Z,109.50
2018-01-06T00:53:02.119Z,105.80
2018-01-06T00:55:28.489Z,95.43
2018-01-06T00:57:54.980Z,108.33
2018-01-06T01:00:21.555Z,103.03
2018-01-06T01:02:47.977Z,126.20
2018-01-06T01:05:14.444Z,127.83
2018-01-06T01:07:40.877Z,132.80
2018-01-06T01:10:07.343Z,136.27
2018-01-06T01:12:33.752Z,136.63
2018-01-06T01:15:00.102Z,138.37
2018-01-06T01:17:26.463Z,145.67
2018-01-06T01:19:52.988Z,129.07
2018-01-06T01:22:19.502Z,143.77
2018-01-06T01:24:45.920Z,140.00
2018-01-06T01:27:12.462Z,128.43
2018-01-06T01:29:38.950Z,123.57
2018-01-06T01:32:05.387Z,124.30
2018-01-06T01:34:31.923Z,106.90
2018-01-06T01:36:58.332Z,117.03
2018-01-06T01:39:24.826Z,95.50
2018-01-06T01:41:51.428Z,108.30
2018-01-06T01:44:17.945Z,100.30
2018-01-06T01:46:44.375Z,98.47
2018-01-06T01:49:10.844Z,99.03
2018-01-06T01:51:37.260Z,104.23
2018-01-06T01:54:03.672Z,109.87
2018-01-06T01:56:30.098Z,104.33
2018-01-06T01:58:56.453Z,107.83
2018-01-06T02:01:22.871Z,105.67
2018-01-06T02:03:49.352Z,103.93
2018-01-06T02:06:15.820Z,104.53
2018-01-06T02:08:42.171Z,108.33
2018-01-06T02:11:08.591Z,106.83
2018-01-06T02:13:34.980Z,96.60
2018-01-06T02:16:01.501Z,94.27
2018-01-06T02:18:27.911Z,91.93
2018-01-06T02:20:54.331Z,83.27
2018-01-06T02:23:20.720Z,79.67
2018-01-06T02:25:47.090Z,75.73
2018-01-06T02:28:13.540Z,81.03
2018-01-06T02:30:39.903Z,74.80
2018-01-06T02:33:06.379Z,84.07
2018-01-06T02:35:32.780Z,81.67
2018-01-06T02:37:59.288Z,82.73
2018-01-06T02:40:25.755Z,78.03
2018-01-06T02:42:52.119Z,74.97
2018-01-06T02:45:18.695Z,67.67
2018-01-06T02:47:45.151Z,69.93
2018-01-06T02:50:11.606Z,63.00
2018-01-06T02:52:38.037Z,65.37
2018-01-06T02:55:04.492Z,67.53
2018-01-06T02:57:30.912Z,68.00
2018-01-06T02:59:57.323Z,59.60
2018-01-06T03:02:23.756Z,65.13
2018-01-06T03:04:50.215Z,75.53
2018-01-06T03:07:16.588Z,73.60
2018-01-06T03:09:42.973Z,77.93
2018-01-06T03:12:09.361Z,77.63
2018-01-06T03:14:35.707Z,85.07
2018-01-06T03:17:02.131Z,86.87
2018-01-06T03:19:28.499Z,93.43
2018-01-06T03:21:54.963Z,82.63
2018-01-06T03:24:21.440Z,84.40
2018-01-06T03:26:47.927Z,77.07
2018-01-06T03:29:14.355Z,83.83
2018-01-06T03:31:40.818Z,75.53
2018-01-06T03:34:07.249Z,81.90
2018-01-06T03:36:33.631Z,74.07
2018-01-06T03:39:00.076Z,73.77
2018-01-06T03:41:26.438Z,76.57
2018-01-06T03:43:52.918Z,76.43
2018-01-06T03:46:19.332Z,77.43
2018-01-06T03:48:45.755Z,82.47
2018-01-06T03:51:12.207Z,76.67
2018-01-06T03:53:38.579Z,71.23
2018-01-06T03:56:04.997Z,77.53
2018-01-06T03:58:31.439Z,83.07
2018-01-06T04:00:58.008Z,70.17
2018-01-06T04:03:24.422Z,77.43
2018-01-06T04:05:50.783Z,79.87
2018-01-06T04:08:17.223Z,82.37
2018-01-06T04:10:43.614Z,88.70
2018-01-06T04:13:10.018Z,75.47
2018-01-06T04:15:36.454Z,80.93
2018-01-06T04:18:02.884Z,84.07
2018-01-06T04:20:29.282Z,91.70
2018-01-06T04:22:55.764Z,92.40
2018-01-06T04:25:22.134Z,91.00
2018-01-06T04:27:48.556Z,83.47
2018-01-06T04:30:15.049Z,81.83
2018-01-06T04:32:41.404Z,82.50
2018-01-06T04:35:07.828Z,96.03
2018-01-06T04:37:34.299Z,83.90
2018-01-06T04:40:00.708Z,80.53
2018-01-06T04:42:27.119Z,85.60
2018-01-06T04:44:53.595Z,81.77
2018-01-06T04:47:20.107Z,71.97
2018-01-06T04:49:46.515Z,61.70
2018-01-06T04:52:12.988Z,55.77
2018-01-06T04:54:39.396Z,55.73
2018-01-06T04:57:05.778Z,58.87
2018-01-06T04:59:32.211Z,61.87
2018-01-06T05:01:58.616Z,55.83
2018-01-06T05:04:25.088Z,49.60
2018-01-06T05:06:51.487Z,44.47
2018-01-06T05:09:17.870Z,48.40
2018-01-06T05:11:44.339Z,44.40
2018-01-06T05:14:10.760Z,45.07
2018-01-06T05:16:37.168Z,48.17
2018-01-06T05:19:03.694Z,64.43
2018-01-06T05:21:30.127Z,57.17
2018-01-06T05:23:56.467Z,55.00
2018-01-06T05:26:22.927Z,54.53
2018-01-06T05:28:49.384Z,57.57
2018-01-06T05:31:15.800Z,54.60
2018-01-06T05:33:42.204Z,52.10
2018-01-06T05:36:08.680Z,51.27
2018-01-06T05:38:35.125Z,47.83
2018-01-06T05:41:01.508Z,50.50
2018-01-06T05:43:28.000Z,55.43
2018-01-06T05:45:54.493Z,55.50
2018-01-06T05:48:20.931Z,67.43
2018-01-06T05:50:47.332Z,73.10
2018-01-06T05:53:13.705Z,78.23
2018-01-06T05:55:40.099Z,111.47
2018-01-06T05:58:06.610Z,105.63
2018-01-06T06:00:32.992Z,101.23
2018-01-06T06:02:59.425Z,103.10
2018-01-06T06:05:25.888Z,103.23
2018-01-06T06:07:52.276Z,99.23
2018-01-06T06:10:18.676Z,98.30
2018-01-06T06:12:45.147Z,98.57
2018-01-06T06:15:11.541Z,98.23
2018-01-06T06:17:37.924Z,109.43
2018-01-06T06:20:04.356Z,158.57
2018-01-06T06:22:30.800Z,104.37
2018-01-06T06:24:57.262Z,103.37
2018-01-06T06:27:23.663Z,117.77
2018-01-06T06:29:50.079Z,114.03
2018-01-06T06:32:16.460Z,119.17
2018-01-06T06:34:42.857Z,119.87
2018-01-06T06:37:09.303Z,122.73
2018-01-06T06:39:35.744Z,129.57
2018-01-06T06:42:02.204Z,128.70
2018-01-06T06:44:28.586Z,133.93
2018-01-06T06:46:54.996Z,121.90
2018-01-06T06:49:21.448Z,106.20
2018-01-06T06:51:47.843Z,110.90
2018-01-06T06:54:14.322Z,105.87
2018-01-06T06:56:40.819Z,102.53
2018-01-06T06:59:07.347Z,90.93
2018-01-06T07:01:33.839Z,107.83
2018-01-06T07:04:00.275Z,102.50
2018-01-06T07:06:26.667Z,98.30
2018-01-06T07:08:53.033Z,111.53
2018-01-06T07:11:19.483Z,93.93
2018-01-06T07:13:45.887Z,87.17
2018-01-06T07:16:12.347Z,95.50
2018-01-06T07:18:38.843Z,81.87
2018-01-06T07:21:05.292Z,75.73
2018-01-06T07:23:31.647Z,61.80
2018-01-06T07:25:58.090Z,62.67
2018-01-06T07:28:24.463Z,70.47
2018-01-06T07:30:51.021Z,63.83
2018-01-06T07:33:17.487Z,68.93
2018-01-06T07:35:43.823Z,46.47
2018-01-06T07:38:10.204Z,57.97
2018-01-06T07:40:36.624Z,50.70
2018-01-06T07:43:03.018Z,45.53
2018-01-06T07:45:29.426Z,45.80
2018-01-06T07:47:55.800Z,40.00
2018-01-06T07:50:22.216Z,42.43
2018-01-06T07:52:48.792Z,45.53
2018-01-06T07:55:15.216Z,46.00
2018-01-06T07:57:41.615Z,47.77
2018-01-06T08:00:08.012Z,52.77
2018-01-06T08:02:34.434Z,51.13
2018-01-06T08:05:00.915Z,57.33
2018-01-06T08:07:27.319Z,62.67
2018-01-06T08:09:53.812Z,63.60
2018-01-06T08:12:20.205Z,62.90
2018-01-06T08:14:46.676Z,64.90
2018-01-06T08:17:13.164Z,56.60
2018-01-06T08:19:39.652Z,55.27
2018-01-06T08:22:06.042Z,58.53
2018-01-06T08:24:32.464Z,70.27
2018-01-06T08:26:58.896Z,61.77
2018-01-06T08:29:25.344Z,67.50
2018-01-06T08:31:51.859Z,67.33
2018-01-06T08:34:18.288Z,70.20
2018-01-06T08:36:44.687Z,68.70
2018-01-06T08:39:11.189Z,73.10
2018-01-06T08:41:37.552Z,48.53
2018-01-06T08:44:03.928Z,41.50
2018-01-06T08:46:30.384Z,52.83
2018-01-06T08:48:56.813Z,38.97
2018-01-06T08:51:23.328Z,40.17
2018-01-06T08:53:49.779Z,42.23
2018-01-06T08:56:16.123Z,39.53
2018-01-06T08:58:42.557Z,42.03
2018-01-06T09:01:09.032Z,40.60
2018-01-06T09:03:35.418Z,43.37
2018-01-06T09:06:01.767Z,38.17
2018-01-06T09:08:28.164Z,38.27
2018-01-06T09:10:54.531Z,41.17
2018-01-06T09:13:20.945Z,39.30
2018-01-06T09:15:47.348Z,43.77
2018-01-06T09:18:13.747Z,39.97
2018-01-06T09:20:40.246Z,38.90
2018-01-06T09:23:06.760Z,40.70
2018-01-06T09:25:33.152Z,42.33
2018-01-06T09:27:59.504Z,47.63
2018-01-06T09:30:26.182Z,50.17
2018-01-06T09:32:52.567Z,47.40
2018-01-06T09:35:19.070Z,33.73
2018-01-06T09:37:45.476Z,32.27
2018-01-06T09:40:12.040Z,37.37
2018-01-06T09:42:38.454Z,33.77
2018-01-06T09:45:04.864Z,36.27
2018-01-06T09:47:31.212Z,49.73
2018-01-06T09:49:57.780Z,53.20
2018-01-06T09:52:24.216Z,49.33
2018-01-06T09:54:50.680Z,41.60
2018-01-06T09:57:17.107Z,37.73
2018-01-06T09:59:43.608Z,43.53
2018-01-06T10:02:09.964Z,43.27
2018-01-06T10:04:36.592Z,43.30
2018-01-06T10:07:03.060Z,43.27
2018-01-06T10:09:29.423Z,46.07
2018-01-06T10:11:55.798Z,45.27
2018-01-06T10:14:22.240Z,39.70
2018-01-06T10:16:48.659Z,37.43
2018-01-06T10:19:15.036Z,33.17
2018-01-06T10:21:41.535Z,35.60
2018-01-06T10:24:07.904Z,32.87
2018-01-06T10:26:34.374Z,29.07
2018-01-06T10:29:00.879Z,35.70
2018-01-06T10:31:27.285Z,37.63
2018-01-06T10:33:53.746Z,31.10
2018-01-06T10:36:20.188Z,35.03
2018-01-06T10:38:46.538Z,36.37
2018-01-06T10:41:12.973Z,35.43
2018-01-06T10:43:39.376Z,31.43
2018-01-06T10:46:05.723Z,32.50
2018-01-06T10:48:32.172Z,35.63
2018-01-06T10:50:58.587Z,41.13
2018-01-06T10:53:25.011Z,35.60
2018-01-06T10:55:51.464Z,32.77
2018-01-06T10:58:17.836Z,36.03
2018-01-06T11:00:50.388Z,34.60
2018-01-06T11:03:16.743Z,41.57
2018-01-06T11:05:43.248Z,45.93
2018-01-06T11:08:09.648Z,38.23
2018-01-06T11:10:36.182Z,40.53
2018-01-06T11:13:02.730Z,40.23
2018-01-06T11:15:29.140Z,34.87
2018-01-06T11:17:55.532Z,30.17
2018-01-06T11:20:22.057Z,29.87
2018-01-06T11:22:48.433Z,25.63
2018-01-06T11:25:14.808Z,22.23
2018-01-06T11:27:41.189Z,22.27
2018-01-06T11:30:07.596Z,22.97
2018-01-06T11:32:33.972Z,25.13
2018-01-06T11:35:00.460Z,21.40
2018-01-06T11:37:26.852Z,21.00
2018-01-06T11:39:53.232Z,18.47
2018-01-06T11:42:19.688Z,20.17
2018-01-06T11:44:46.122Z,21.70
2018-01-06T11:47:12.742Z,20.97
2018-01-06T11:49:39.108Z,21.37
2018-01-06T11:52:05.604Z,22.27
2018-01-06T11:54:31.987Z,23.57
2018-01-06T11:56:58.440Z,25.63
2018-01-06T11:59:24.803Z,27.67
2018-01-06T12:01:51.188Z,27.90
2018-01-06T12:04:17.627Z,22.03
2018-01-06T12:06:44.001Z,21.73
2018-01-06T12:09:10.417Z,21.13
2018-01-06T12:11:36.872Z,23.23
2018-01-06T12:14:03.249Z,23.40
2018-01-06T12:16:29.639Z,22.57
2018-01-06T12:18:56.147Z,22.37
2018-01-06T12:21:22.532Z,21.83
2018-01-06T12:23:48.904Z,26.03
2018-01-06T12:26:15.338Z,18.03
2018-01-06T12:28:41.724Z,23.00
2018-01-06T12:31:08.192Z,21.70
2018-01-06T12:33:34.609Z,24.50
2018-01-06T12:36:00.984Z,21.63
2018-01-06T12:38:27.433Z,21.37
2018-01-06T12:40:53.912Z,22.03
2018-01-06T12:43:20.311Z,21.63
2018-01-06T12:45:46.731Z,22.93
2018-01-06T12:48:13.186Z,18.33
2018-01-06T12:50:39.588Z,20.03
2018-01-06T12:53:05.987Z,20.67
2018-01-06T12:55:32.435Z,18.87
2018-01-06T12:57:58.819Z,22.27
2018-01-06T13:00:25.232Z,22.43
2018-01-06T13:02:51.733Z,25.27
2018-01-06T13:05:18.104Z,19.13
2018-01-06T13:07:44.508Z,21.47
2018-01-06T13:10:11.084Z,22.33
2018-01-06T13:12:37.455Z,22.40
2018-01-06T13:15:03.818Z,21.23
2018-01-06T13:17:30.339Z,20.17
2018-01-06T13:19:57.076Z,21.53
2018-01-06T13:22:23.560Z,22.20
2018-01-06T13:24:49.980Z,24.00
2018-01-06T13:27:16.356Z,28.23
2018-01-06T13:29:42.755Z,29.33
2018-01-06T13:32:09.314Z,24.60
2018-01-06T13:34:35.819Z,30.17
2018-01-06T13:37:02.209Z,25.00
2018-01-06T13:39:28.615Z,19.80
2018-01-06T13:41:55.033Z,22.13
2018-01-06T13:44:21.447Z,23.80
2018-01-06T13:46:47.907Z,19.57
2018-01-06T13:49:14.284Z,19.47
2018-01-06T13:51:40.760Z,22.63
2018-01-06T13:54:07.200Z,23.33
2018-01-06T13:56:33.553Z,21.40
2018-01-06T13:58:59.954Z,20.13
2018-01-06T14:01:26.392Z,22.23
2018-01-06T14:03:52.888Z,25.37
2018-01-06T14:06:19.263Z,22.13
2018-01-06T14:08:45.716Z,22.07
2018-01-06T14:11:12.227Z,25.20
2018-01-06T14:13:38.623Z,27.77
2018-01-06T14:16:05.043Z,22.77
2018-01-06T14:18:31.448Z,27.33
2018-01-06T14:20:57.839Z,36.63
2018-01-06T14:23:24.263Z,28.70
2018-01-06T14:25:50.639Z,28.13
2018-01-06T14:28:17.071Z,27.13
2018-01-06T14:30:43.549Z,28.90
2018-01-06T14:33:10.048Z,29.57
2018-01-06T14:35:36.487Z,32.70
2018-01-06T14:38:02.899Z,37.73
2018-01-06T14:40:29.336Z,45.73
2018-01-06T14:42:55.789Z,39.57
2018-01-06T14:45:22.264Z,41.07
2018-01-06T14:47:48.647Z,42.13
2018-01-06T14:50:15.088Z,42.40
2018-01-06T14:52:41.836Z,35.33
2018-01-06T14:55:08.699Z,31.77
2018-01-06T14:57:35.072Z,36.90
2018-01-06T15:00:01.563Z,36.73
2018-01-06T15:02:27.971Z,35.23
2018-01-06T15:04:54.476Z,37.67
2018-01-06T15:07:20.972Z,38.07
2018-01-06T15:09:47.442Z,36.10
2018-01-06T15:12:13.813Z,37.33
2018-01-06T15:14:40.311Z,41.47
2018-01-06T15:17:06.748Z,40.17
2018-01-06T15:19:33.126Z,38.33
2018-01-06T15:21:59.558Z,35.70
2018-01-06T15:24:25.953Z,36.23
2018-01-06T15:26:52.368Z,49.30
2018-01-06T15:29:18.908Z,50.03
2018-01-06T15:31:45.335Z,66.23
2018-01-06T15:34:11.798Z,61.13
2018-01-06T15:36:38.220Z,57.00
2018-01-06T15:39:04.621Z,56.50
2018-01-06T15:41:31.052Z,61.43
2018-01-06T15:43:57.513Z,65.27
2018-01-06T15:46:23.941Z,62.80
2018-01-06T15:48:50.525Z,61.30
2018-01-06T15:51:16.962Z,69.20
2018-01-06T15:53:43.338Z,72.47
2018-01-06T15:56:09.707Z,72.67
2018-01-06T15:58:36.179Z,75.47
2018-01-06T16:01:02.611Z,78.50
2018-01-06T16:03:29.028Z,97.60
2018-01-06T16:05:55.641Z,117.93
2018-01-06T16:08:22.060Z,127.30
2018-01-06T16:10:48.467Z,139.73
2018-01-06T16:13:14.862Z,132.70
2018-01-06T16:15:41.290Z,137.53
2018-01-06T16:18:07.709Z,149.80
2018-01-06T16:20:36.212Z,163.07
2018-01-06T16:23:02.596Z,173.53
2018-01-06T16:25:28.979Z,187.57
2018-01-06T16:27:55.540Z,198.40
2018-01-06T16:30:21.943Z,235.07
2018-01-06T16:32:48.400Z,273.60
2018-01-06T16:35:14.888Z,292.43
2018-01-06T16:37:41.252Z,286.40
2018-01-06T16:40:07.757Z,273.23
2018-01-06T16:42:34.283Z,260.40
2018-01-06T16:45:00.623Z,259.53
2018-01-06T16:47:27.207Z,237.67
2018-01-06T16:49:55.796Z,251.13
2018-01-06T16:52:22.244Z,240.10
2018-01-06T16:54:48.784Z,240.60
2018-01-06T16:57:15.188Z,233.87
2018-01-06T16:59:41.680Z,224.87
2018-01-06T17:02:08.080Z,196.27
2018-01-06T17:04:34.540Z,190.37
2018-01-06T17:07:01.207Z,182.20
2018-01-06T17:09:27.599Z,172.23
2018-01-06T17:11:54.032Z,170.63
2018-01-06T17:14:20.424Z,158.80
2018-01-06T17:16:46.833Z,159.63
2018-01-06T17:19:13.248Z,161.07
2018-01-06T17:21:39.743Z,168.27
2018-01-06T17:24:06.171Z,181.47
2018-01-06T17:26:32.656Z,162.87
2018-01-06T17:28:59.056Z,165.47
2018-01-06T17:31:25.413Z,167.17
2018-01-06T17:33:51.843Z,162.30
2018-01-06T17:36:18.489Z,162.73
2018-01-06T17:38:44.879Z,164.10
2018-01-06T17:41:11.273Z,161.17
2018-01-06T17:43:37.709Z,165.47
2018-01-06T17:46:04.097Z,158.33
2018-01-06T17:48:30.552Z,163.53
2018-01-06T17:50:57.332Z,154.13
2018-01-06T17:53:23.832Z,153.27
2018-01-06T17:55:50.208Z,140.90
2018-01-06T17:58:16.636Z,128.13
2018-01-06T18:00:43.067Z,128.57
2018-01-06T18:03:09.516Z,130.53
2018-01-06T18:05:35.981Z,129.03
2018-01-06T18:08:02.388Z,131.67
2018-01-06T18:10:28.912Z,130.37
2018-01-06T18:12:55.319Z,133.33
2018-01-06T18:15:21.732Z,130.67
2018-01-06T18:17:48.132Z,125.23
2018-01-06T18:20:14.599Z,124.60
2018-01-06T18:22:40.997Z,112.63
2018-01-06T18:25:07.547Z,106.13
2018-01-06T18:27:33.972Z,104.47
2018-01-06T18:30:00.396Z,108.77
2018-01-06T18:32:26.821Z,104.70
2018-01-06T18:34:53.256Z,106.53
2018-01-06T18:37:20.784Z,108.50
2018-01-06T18:39:47.227Z,110.20
2018-01-06T18:42:13.664Z,111.60
2018-01-06T18:44:40.144Z,112.43
2018-01-06T18:47:06.583Z,108.37
2018-01-06T18:49:32.976Z,118.07
2018-01-06T18:51:59.385Z,123.13
2018-01-06T18:54:25.839Z,122.70
2018-01-06T18:56:52.289Z,130.67
2018-01-06T18:59:18.716Z,120.90
2018-01-06T19:01:45.184Z,117.90
2018-01-06T19:04:11.632Z,117.53
2018-01-06T19:06:38.024Z,114.73
2018-01-06T19:09:04.476Z,113.73
2018-01-06T19:11:30.815Z,119.37
2018-01-06T19:13:57.236Z,116.00
2018-01-06T19:16:23.760Z,111.13
2018-01-06T19:18:50.221Z,113.03
2018-01-06T19:21:16.656Z,114.83
2018-01-06T19:23:43.032Z,120.10
2018-01-06T19:26:09.424Z,118.27
2018-01-06T19:28:35.911Z,126.40
2018-01-06T19:31:02.362Z,131.30
2018-01-06T19:33:28.820Z,117.10
2018-01-06T19:35:55.176Z,115.77
2018-01-06T19:38:21.583Z,118.07
2018-01-06T19:40:47.995Z,121.17
2018-01-06T19:43:14.371Z,116.53
2018-01-06T19:45:40.803Z,130.87
2018-01-06T19:48:07.187Z,126.00
2018-01-06T19:50:33.570Z,136.17
2018-01-06T19:52:59.977Z,133.23
2018-01-06T19:55:26.472Z,136.87
2018-01-06T19:57:52.845Z,132.27
2018-01-06T20:00:19.280Z,129.27
2018-01-06T20:02:45.662Z,124.43
2018-01-06T20:05:12.146Z,126.03
2018-01-06T20:07:38.639Z,122.23
2018-01-06T20:10:05.002Z,115.73
2018-01-06T20:12:31.372Z,112.77
2018-01-06T20:14:57.799Z,101.07
2018-01-06T20:17:24.168Z,101.93
2018-01-06T20:19:50.665Z,100.67
2018-01-06T20:22:17.116Z,106.10
2018-01-06T20:24:43.464Z,86.30
2018-01-06T20:27:09.923Z,90.30
2018-01-06T20:29:36.398Z,88.60
2018-01-06T20:32:02.804Z,91.23
2018-01-06T20:34:29.228Z,95.53
2018-01-06T20:36:55.734Z,94.50
2018-01-06T20:39:22.252Z,101.40
2018-01-06T20:41:48.684Z,97.53
2018-01-06T20:44:15.063Z,105.80
2018-01-06T20:46:41.507Z,104.83
2018-01-06T20:49:07.904Z,102.97
2018-01-06T20:51:34.360Z,98.93
2018-01-06T20:54:00.748Z,97.63
2018-01-06T20:56:27.160Z,97.47
2018-01-06T20:58:53.636Z,101.17
2018-01-06T21:01:19.979Z,104.10
2018-01-06T21:03:46.339Z,105.07
2018-01-06T21:06:12.827Z,102.60
2018-01-06T21:08:39.272Z,105.73
2018-01-06T21:11:05.663Z,107.47
2018-01-06T21:13:32.040Z,107.43
2018-01-06T21:15:58.536Z,105.23
2018-01-06T21:18:24.961Z,106.30
2018-01-06T21:20:51.451Z,110.10
2018-01-06T21:23:17.879Z,95.13
2018-01-06T21:25:44.321Z,97.70
2018-01-06T21:28:10.772Z,92.13
2018-01-06T21:30:37.251Z,91.27
2018-01-06T21:33:03.724Z,89.10
2018-01-06T21:35:30.467Z,88.63
2018-01-06T21:37:59.552Z,76.17
2018-01-06T21:40:25.914Z,71.97
2018-01-06T21:42:52.399Z,75.97
2018-01-06T21:45:18.819Z,77.77
2018-01-06T21:47:45.212Z,81.93
2018-01-06T21:50:11.647Z,73.07
2018-01-06T21:52:38.020Z,79.70
2018-01-06T21:55:04.464Z,69.27
2018-01-06T21:57:31.038Z,77.47
2018-01-06T21:59:58.612Z,75.63
2018-01-06T22:02:24.992Z,80.27
2018-01-06T22:04:51.448Z,75.73
2018-01-06T22:07:17.913Z,71.43
2018-01-06T22:09:44.325Z,73.07
2018-01-06T22:12:10.771Z,71.47
2018-01-06T22:14:37.143Z,73.70
2018-01-06T22:17:03.492Z,75.13
2018-01-06T22:19:30.025Z,69.20
2018-01-06T22:21:57.275Z,71.03
2018-01-06T22:24:23.732Z,78.83
2018-01-06T22:26:50.139Z,76.80
2018-01-06T22:29:16.495Z,76.17
2018-01-06T22:31:42.927Z,75.30
2018-01-06T22:34:09.413Z,78.80
2018-01-06T22:36:35.779Z,85.77
2018-01-06T22:39:02.231Z,73.57
2018-01-06T22:41:28.744Z,78.47
2018-01-06T22:43:55.119Z,70.03
2018-01-06T22:46:21.475Z,72.20
2018-01-06T22:48:47.924Z,61.70
2018-01-06T22:51:14.318Z,60.33
2018-01-06T22:53:40.696Z,64.70
2018-01-06T22:56:07.124Z,70.87
2018-01-06T22:58:33.547Z,65.00
2018-01-06T23:00:59.888Z,66.97
2018-01-06T23:03:26.315Z,64.53
2018-01-06T23:05:52.735Z,59.80
2018-01-06T23:08:19.146Z,61.83
2018-01-06T23:10:45.602Z,63.03
2018-01-06T23:13:12.015Z,62.50
2018-01-06T23:15:38.442Z,61.60
2018-01-06T23:18:04.859Z,57.00
2018-01-06T23:20:31.309Z,57.53
2018-01-06T23:22:57.751Z,62.33
2018-01-06T23:25:24.155Z,57.00
2018-01-06T23:27:50.571Z,58.33
2018-01-06T23:30:16.951Z,55.80
2018-01-06T23:32:43.431Z,59.50
2018-01-06T23:35:09.843Z,55.33
2018-01-06T23:37:36.300Z,55.00
2018-01-06T23:40:02.732Z,56.83
2018-01-06T23:42:29.142Z,59.03
2018-01-06T23:44:55.565Z,58.10
2018-01-06T23:47:21.967Z,56.83
2018-01-06T23:49:48.388Z,58.50
2018-01-06T23:52:14.815Z,56.77
2018-01-06T23:54:41.215Z,61.30
2018-01-06T23:57:07.631Z,62.53
2018-01-06T23:59:34.064Z,59.80
